Time;durP1;ratioP1;P1;durP2;ratioP2;P2;SDS_P1;SDS_P2;PMS_P1;PMS_P2;Temp;Humidity;BMP_temperature;BMP_pressure;BME280_temperature;BME280_humidity;BME280_pressure;Samples;Min_cycle;Max_cycle;Signal;HPM_P1;HPM_P2
2022/03/12 00:00:26;;;;;;;;;;;;;;;9.98;22.79;101398.78;5055669;28;19921;-73
2022/03/12 00:02:51;;;;;;;;;;;;;;;10.06;22.40;101398.38;5057406;28;19929;-74
2022/03/12 00:05:18;;;;;;;;;;;;;;;9.92;22.45;101399.78;5046974;28;20266;-73
2022/03/12 00:07:44;;;;;;;;;;;;;;;9.94;22.37;101405.78;5047259;28;19966;-73
2022/03/12 00:10:12;;;;;;;;;;;;;;;10.29;22.06;101400.09;5049047;28;19925;-72
2022/03/12 00:12:38;;;;;;;;;;;;;;;9.76;22.42;101400.63;5050994;28;19933;-73
2022/03/12 00:15:09;;;;;;;;;;;;;;;9.80;22.95;101393.66;5054672;28;19983;-72
2022/03/12 00:17:34;;;;;;;;;;;;;;;9.73;22.67;101398.38;5049558;28;19932;-74
2022/03/12 00:20:00;;;;;;;;;;;;;;;9.91;22.48;101398.16;5054925;28;19974;-73
2022/03/12 00:22:27;;;;;;;;;;;;;;;10.24;22.02;101394.59;5053743;28;19924;-74
2022/03/12 00:24:52;;;;;;;;;;;;;;;10.23;21.96;101398.38;5054224;28;19928;-71
2022/03/12 00:27:19;;;;;;;;;;;;;;;10.36;22.15;101400.72;5054031;28;19974;-72
2022/03/12 00:29:44;;;;;;;;;;;;;;;9.63;22.66;101404.47;5053158;28;19921;-72
2022/03/12 00:32:13;;;;;;;;;;;;;;;9.75;23.30;101407.09;5054208;28;20005;-72
2022/03/12 00:34:38;;;;;;;;;;;;;;;10.18;22.37;101411.84;5053472;28;19929;-73
2022/03/12 00:37:03;;;;;;;;;;;;;;;9.73;22.64;101401.94;5053536;28;19916;-72
2022/03/12 00:39:29;;;;;;;;;;;;;;;10.13;22.65;101403.66;5053622;28;19927;-73
2022/03/12 00:41:55;;;;;;;;;;;;;;;10.15;22.38;101412.34;5053501;28;19916;-72
2022/03/12 00:44:21;;;;;;;;;;;;;;;10.55;22.00;101400.22;5053403;28;19920;-74
2022/03/12 00:46:46;;;;;;;;;;;;;;;10.41;22.07;101409.75;5054182;28;19924;-73
2022/03/12 00:49:12;;;;;;;;;;;;;;;10.60;21.96;101410.34;5053933;28;19947;-73
2022/03/12 00:51:38;;;;;;;;;;;;;;;10.56;21.65;101414.63;5054019;28;20252;-73
2022/03/12 00:54:04;;;;;;;;;;;;;;;10.03;22.48;101415.16;5053221;28;19921;-73
2022/03/12 00:56:29;;;;;;;;;;;;;;;10.10;22.43;101414.97;5051788;28;19982;-72
2022/03/12 00:58:54;;;;;;;;;;;;;;;10.21;22.42;101419.50;5053642;28;19940;-73
2022/03/12 01:01:21;;;;;;;;;;;;;;;10.36;22.20;101423.25;5053002;28;19963;-72
2022/03/12 01:03:46;;;;;;;;;;;;;;;10.50;22.28;101412.91;5052405;28;19974;-71
2022/03/12 01:06:13;;;;;;;;;;;;;;;10.13;22.47;101409.91;5052272;28;19920;-74
2022/03/12 01:08:38;;;;;;;;;;;;;;;10.14;22.45;101408.81;5053097;28;19921;-73
2022/03/12 01:11:06;;;;;;;;;;;;;;;10.10;22.68;101413.09;5053663;28;19963;-73
2022/03/12 01:13:33;;;;;;;;;;;;;;;10.27;22.35;101418.50;5052276;28;20320;-74
2022/03/12 01:15:58;;;;;;;;;;;;;;;10.41;22.26;101414.38;5053525;28;19929;-73
2022/03/12 01:18:24;;;;;;;;;;;;;;;10.10;22.71;101415.81;5051787;28;19921;-73
2022/03/12 01:20:51;;;;;;;;;;;;;;;10.44;22.32;101409.28;5053127;28;19983;-74
2022/03/12 01:23:17;;;;;;;;;;;;;;;10.44;22.36;101413.88;5053101;28;19921;-73
2022/03/12 01:25:44;;;;;;;;;;;;;;;10.29;22.71;101422.63;5053317;28;19927;-73
2022/03/12 01:28:10;;;;;;;;;;;;;;;10.40;22.70;101426.28;5052904;28;20380;-74
2022/03/12 01:30:35;;;;;;;;;;;;;;;10.42;22.53;101424.97;5053191;28;19921;-73
2022/03/12 01:33:02;;;;;;;;;;;;;;;10.02;22.78;101416.22;5052851;28;20340;-74
2022/03/12 01:35:27;;;;;;;;;;;;;;;10.06;23.11;101411.13;5052649;28;19966;-73
2022/03/12 01:37:53;;;;;;;;;;;;;;;10.43;22.51;101417.66;5051828;28;19913;-73
2022/03/12 01:40:18;;;;;;;;;;;;;;;10.15;22.74;101421.31;5052780;28;19921;-72
2022/03/12 01:42:44;;;;;;;;;;;;;;;10.20;22.61;101418.66;5052894;28;20004;-72
2022/03/12 01:45:10;;;;;;;;;;;;;;;9.85;22.84;101420.81;5053140;28;19921;-72
2022/03/12 01:47:36;;;;;;;;;;;;;;;10.14;22.36;101422.38;5053163;28;19940;-73
2022/03/12 01:50:02;;;;;;;;;;;;;;;10.31;22.59;101419.66;5053095;28;19928;-73
2022/03/12 01:52:28;;;;;;;;;;;;;;;10.07;22.66;101423.63;5066836;28;20391;-74
2022/03/12 01:54:54;;;;;;;;;;;;;;;9.98;22.75;101414.25;5073372;28;19964;-73
2022/03/12 01:57:20;;;;;;;;;;;;;;;10.23;22.94;101420.06;5056530;28;19917;-73
2022/03/12 01:59:45;;;;;;;;;;;;;;;10.13;22.75;101417.19;5051348;28;20050;-74
2022/03/12 02:02:13;;;;;;;;;;;;;;;9.60;23.32;101415.78;5053346;28;20031;-74
2022/03/12 02:04:39;;;;;;;;;;;;;;;9.83;23.66;101412.09;5052941;28;20503;-73
2022/03/12 02:07:04;;;;;;;;;;;;;;;9.79;23.32;101406.38;5052982;28;19921;-74
2022/03/12 02:09:30;;;;;;;;;;;;;;;9.91;23.21;101414.41;5052884;28;19925;-72
2022/03/12 02:11:55;;;;;;;;;;;;;;;10.21;22.79;101416.78;5052818;28;20380;-73
2022/03/12 02:14:25;;;;;;;;;;;;;;;9.48;23.68;101416.91;5052701;28;19920;-73
2022/03/12 02:16:52;;;;;;;;;;;;;;;9.91;23.06;101410.88;5033741;28;19921;-73
2022/03/12 02:19:18;;;;;;;;;;;;;;;10.00;23.27;101418.34;5032716;28;19983;-74
2022/03/12 02:21:49;;;;;;;;;;;;;;;10.02;23.17;101415.41;5033408;28;20373;-73
2022/03/12 02:24:16;;;;;;;;;;;;;;;10.39;22.65;101428.16;5032865;28;19996;-74
2022/03/12 02:26:42;;;;;;;;;;;;;;;10.01;23.12;101417.28;5033013;28;19928;-74
2022/03/12 02:29:11;;;;;;;;;;;;;;;10.42;23.00;101422.25;5033479;28;19913;-73
2022/03/12 02:31:38;;;;;;;;;;;;;;;9.92;23.28;101424.19;5033049;28;19924;-74
2022/03/12 02:34:07;;;;;;;;;;;;;;;10.24;23.06;101422.53;5032559;28;19917;-72
2022/03/12 02:36:32;;;;;;;;;;;;;;;10.22;23.17;101427.38;5032738;28;19979;-73
2022/03/12 02:39:04;;;;;;;;;;;;;;;10.01;23.20;101422.72;5032750;28;20364;-73
2022/03/12 02:41:29;;;;;;;;;;;;;;;10.16;23.21;101433.78;5032664;28;19913;-72
2022/03/12 02:43:55;;;;;;;;;;;;;;;9.86;23.54;101427.91;5032953;28;19927;-72
2022/03/12 02:46:21;;;;;;;;;;;;;;;9.87;23.85;101437.66;5051406;28;19924;-73
2022/03/12 02:48:48;;;;;;;;;;;;;;;9.70;24.11;101436.81;5051910;28;19948;-74
2022/03/12 02:51:15;;;;;;;;;;;;;;;10.33;23.47;101439.22;5050860;28;19921;-74
2022/03/12 02:53:40;;;;;;;;;;;;;;;10.12;23.19;101448.91;5052113;28;19921;-73
2022/03/12 02:56:05;;;;;;;;;;;;;;;10.10;23.53;101455.63;5052300;28;19995;-72
2022/03/12 02:58:30;;;;;;;;;;;;;;;9.98;23.73;101453.00;5051929;28;19916;-73
2022/03/12 03:00:57;;;;;;;;;;;;;;;10.09;23.90;101457.56;5052120;28;19920;-71
2022/03/12 03:03:22;;;;;;;;;;;;;;;9.43;24.90;101465.59;5033335;28;19998;-72
2022/03/12 03:05:48;;;;;;;;;;;;;;;9.59;24.61;101462.06;5033563;28;19921;-73
2022/03/12 03:08:21;;;;;;;;;;;;;;;10.09;24.47;101459.44;5052695;28;20388;-74
2022/03/12 03:10:48;;;;;;;;;;;;;;;10.03;25.05;101461.25;5050538;28;19924;-72
2022/03/12 03:13:16;;;;;;;;;;;;;;;9.68;25.32;101455.22;5048059;28;20285;-73
2022/03/12 03:15:43;;;;;;;;;;;;;;;9.52;25.41;101456.81;5052015;28;19931;-73
2022/03/12 03:18:10;;;;;;;;;;;;;;;9.83;25.93;101458.19;5033422;28;19921;-74
2022/03/12 03:20:35;;;;;;;;;;;;;;;10.15;25.61;101458.44;5050391;28;19921;-73
2022/03/12 03:23:01;;;;;;;;;;;;;;;9.74;26.33;101460.47;5052527;28;20391;-74
2022/03/12 03:25:27;;;;;;;;;;;;;;;9.81;26.54;101461.16;5051984;28;20309;-72
2022/03/12 03:27:52;;;;;;;;;;;;;;;9.86;27.18;101462.31;5051841;28;19921;-73
2022/03/12 03:30:17;;;;;;;;;;;;;;;9.83;27.29;101464.44;5051848;28;19920;-72
2022/03/12 03:32:42;;;;;;;;;;;;;;;9.88;27.17;101466.38;5051482;28;20266;-73
2022/03/12 03:35:08;;;;;;;;;;;;;;;9.67;26.93;101462.50;5052072;28;20388;-73
2022/03/12 03:37:33;;;;;;;;;;;;;;;9.79;27.86;101465.97;5051525;28;19995;-71
2022/03/12 03:39:58;;;;;;;;;;;;;;;9.59;27.98;101460.19;5051407;28;19925;-74
2022/03/12 03:42:23;;;;;;;;;;;;;;;9.40;28.95;101468.72;5051128;28;19921;-73
2022/03/12 03:44:52;;;;;;;;;;;;;;;9.25;28.67;101473.84;5051328;28;19925;-72
2022/03/12 03:47:17;;;;;;;;;;;;;;;9.32;29.14;101469.09;5051690;28;20032;-72
2022/03/12 03:49:44;;;;;;;;;;;;;;;9.02;28.73;101468.50;5051550;28;19917;-72
2022/03/12 03:52:10;;;;;;;;;;;;;;;9.30;28.86;101469.34;5050055;28;19967;-72
2022/03/12 03:54:35;;;;;;;;;;;;;;;9.61;29.06;101474.31;5051228;28;19925;-74
2022/03/12 03:57:00;;;;;;;;;;;;;;;9.00;29.37;101479.56;5046035;28;19925;-73
2022/03/12 03:59:28;;;;;;;;;;;;;;;8.66;30.31;101477.72;5031282;28;19913;-74
2022/03/12 04:01:54;;;;;;;;;;;;;;;9.19;30.51;101488.34;5031724;28;19921;-73
2022/03/12 04:04:20;;;;;;;;;;;;;;;9.15;31.73;101477.19;5031044;28;19925;-72
2022/03/12 04:06:46;;;;;;;;;;;;;;;9.22;31.07;101482.44;5031288;28;19917;-72
2022/03/12 04:09:11;;;;;;;;;;;;;;;8.91;31.27;101481.00;5031198;28;19921;-73
2022/03/12 04:11:38;;;;;;;;;;;;;;;8.81;31.62;101476.19;5033876;28;20364;-73
2022/03/12 04:14:05;;;;;;;;;;;;;;;8.96;30.85;101491.91;5051629;28;19927;-73
2022/03/12 04:16:31;;;;;;;;;;;;;;;9.38;30.41;101485.22;5051407;28;19974;-74
2022/03/12 04:18:57;;;;;;;;;;;;;;;9.02;31.56;101495.56;5050885;28;19921;-73
2022/03/12 04:21:22;;;;;;;;;;;;;;;8.11;31.96;101488.03;5052674;28;19921;-73
2022/03/12 04:23:49;;;;;;;;;;;;;;;9.01;30.82;101494.75;5054877;28;19925;-74
2022/03/12 04:26:14;;;;;;;;;;;;;;;9.28;30.90;101495.03;5055538;28;19920;-73
2022/03/12 04:28:40;;;;;;;;;;;;;;;8.55;31.54;101498.31;5054904;28;19978;-72
2022/03/12 04:31:06;;;;;;;;;;;;;;;9.04;30.62;101499.66;5054651;28;19928;-73
2022/03/12 04:33:32;;;;;;;;;;;;;;;8.77;30.72;101496.66;5054613;28;19917;-72
2022/03/12 04:35:58;;;;;;;;;;;;;;;8.74;31.14;101502.53;5054615;28;19944;-72
2022/03/12 04:38:23;;;;;;;;;;;;;;;8.59;31.62;101502.19;5055318;28;20001;-73
2022/03/12 04:40:49;;;;;;;;;;;;;;;8.48;32.04;101503.03;5055058;28;20372;-73
2022/03/12 04:43:15;;;;;;;;;;;;;;;8.90;31.16;101500.97;5054415;28;19935;-73
2022/03/12 04:45:43;;;;;;;;;;;;;;;8.99;30.23;101507.69;5054107;28;20447;-73
2022/03/12 04:48:12;;;;;;;;;;;;;;;8.61;30.13;101500.06;5054103;28;20319;-73
2022/03/12 04:50:37;;;;;;;;;;;;;;;8.89;30.02;101500.19;5054103;28;19921;-74
2022/03/12 04:53:02;;;;;;;;;;;;;;;8.91;29.41;101503.47;5054833;28;19966;-73
2022/03/12 04:55:28;;;;;;;;;;;;;;;8.78;29.91;101505.59;5053940;28;20377;-73
2022/03/12 04:57:54;;;;;;;;;;;;;;;9.07;29.22;101509.22;5054079;28;19939;-72
2022/03/12 05:00:23;;;;;;;;;;;;;;;9.18;29.40;101511.88;5054085;28;20384;-72
2022/03/12 05:02:51;;;;;;;;;;;;;;;9.35;29.50;101515.47;5052877;28;20037;-74
2022/03/12 05:05:16;;;;;;;;;;;;;;;9.24;28.95;101507.38;5036063;28;19917;-72
2022/03/12 05:07:45;;;;;;;;;;;;;;;9.04;29.05;101512.38;5034200;28;20082;-72
2022/03/12 05:10:12;;;;;;;;;;;;;;;8.86;29.73;101511.47;5033572;28;19936;-73
2022/03/12 05:12:39;;;;;;;;;;;;;;;9.11;29.76;101511.22;5044543;28;20007;-73
2022/03/12 05:15:05;;;;;;;;;;;;;;;9.60;28.46;101507.91;5053536;28;19924;-72
2022/03/12 05:17:32;;;;;;;;;;;;;;;9.01;29.48;101505.56;5053692;28;19924;-74
2022/03/12 05:19:57;;;;;;;;;;;;;;;9.43;28.69;101512.44;5053599;28;19923;-75
2022/03/12 05:22:22;;;;;;;;;;;;;;;9.14;29.12;101520.72;5053584;28;20007;-73
2022/03/12 05:24:47;;;;;;;;;;;;;;;9.00;28.44;101516.66;5053576;28;19924;-72
2022/03/12 05:27:14;;;;;;;;;;;;;;;8.80;29.57;101523.22;5053430;28;20372;-72
2022/03/12 05:29:41;;;;;;;;;;;;;;;9.34;28.80;101527.38;5035603;28;19921;-73
2022/03/12 05:32:08;;;;;;;;;;;;;;;9.24;28.79;101523.63;5035390;28;19917;-73
2022/03/12 05:34:34;;;;;;;;;;;;;;;9.52;28.53;101521.00;5045480;28;20011;-74
2022/03/12 05:37:03;;;;;;;;;;;;;;;9.41;29.00;101525.34;5053543;28;19963;-74
2022/03/12 05:39:28;;;;;;;;;;;;;;;9.50;28.39;101525.84;5053456;28;19978;-72
2022/03/12 05:41:55;;;;;;;;;;;;;;;9.48;28.45;101526.09;5054896;28;19921;-72
2022/03/12 05:44:25;;;;;;;;;;;;;;;9.33;28.96;101527.63;5069625;28;19963;-73
2022/03/12 05:46:51;;;;;;;;;;;;;;;9.29;28.76;101526.47;5033819;28;19939;-73
2022/03/12 05:49:17;;;;;;;;;;;;;;;9.05;29.30;101531.09;5032995;28;19921;-72
2022/03/12 05:51:42;;;;;;;;;;;;;;;9.25;28.74;101526.09;5048598;28;19921;-73
2022/03/12 05:54:08;;;;;;;;;;;;;;;9.10;29.32;101533.06;5033234;28;19986;-72
2022/03/12 05:56:33;;;;;;;;;;;;;;;9.10;29.59;101536.63;5051275;28;20302;-73
2022/03/12 05:58:59;;;;;;;;;;;;;;;9.24;29.06;101546.13;5053479;28;19908;-73
2022/03/12 06:01:24;;;;;;;;;;;;;;;9.25;29.17;101545.06;5052695;28;20384;-72
2022/03/12 06:03:49;;;;;;;;;;;;;;;9.11;29.48;101550.97;5052069;28;19925;-73
2022/03/12 06:06:14;;;;;;;;;;;;;;;9.02;29.58;101547.81;5052157;28;19986;-72
2022/03/12 06:08:40;;;;;;;;;;;;;;;8.80;29.86;101550.28;5052155;28;20037;-72
2022/03/12 06:11:06;;;;;;;;;;;;;;;8.74;30.39;101556.63;5050971;28;19916;-73
2022/03/12 06:13:32;;;;;;;;;;;;;;;8.71;29.93;101557.13;5051752;28;20250;-72
2022/03/12 06:16:02;;;;;;;;;;;;;;;8.58;30.49;101556.53;5052172;28;19966;-72
2022/03/12 06:18:33;;;;;;;;;;;;;;;8.31;30.54;101561.53;5051701;28;20014;-71
2022/03/12 06:20:58;;;;;;;;;;;;;;;8.85;29.88;101555.00;5052004;28;19921;-72
2022/03/12 06:23:24;;;;;;;;;;;;;;;8.84;29.55;101562.28;5051929;28;20494;-73
2022/03/12 06:25:51;;;;;;;;;;;;;;;8.74;30.31;101562.03;5050992;28;19913;-73
2022/03/12 06:28:17;;;;;;;;;;;;;;;8.54;30.30;101558.88;5052455;28;19995;-73
2022/03/12 06:30:42;;;;;;;;;;;;;;;8.71;30.16;101559.81;5050371;28;19920;-71
2022/03/12 06:33:08;;;;;;;;;;;;;;;8.63;30.61;101562.88;5052383;28;19924;-71
2022/03/12 06:35:33;;;;;;;;;;;;;;;8.74;30.18;101569.38;5052018;28;19916;-74
2022/03/12 06:37:58;;;;;;;;;;;;;;;8.84;29.58;101573.13;5052870;28;19928;-72
2022/03/12 06:40:27;;;;;;;;;;;;;;;9.04;29.91;101569.22;5052304;28;19928;-74
2022/03/12 06:42:54;;;;;;;;;;;;;;;8.49;30.29;101583.09;5031031;28;19925;-72
2022/03/12 06:45:20;;;;;;;;;;;;;;;9.05;29.69;101584.41;5032077;28;19943;-73
2022/03/12 06:47:46;;;;;;;;;;;;;;;8.86;29.83;101587.22;5032306;28;19917;-73
2022/03/12 06:50:15;;;;;;;;;;;;;;;8.80;30.16;101581.97;5032461;28;19986;-71
2022/03/12 06:52:43;;;;;;;;;;;;;;;8.81;30.19;101591.72;5032591;28;20432;-73
2022/03/12 06:55:09;;;;;;;;;;;;;;;9.14;29.39;101596.50;5031880;28;19921;-73
2022/03/12 06:57:35;;;;;;;;;;;;;;;9.15;29.66;101600.88;5050037;28;19920;-73
2022/03/12 07:00:00;;;;;;;;;;;;;;;9.15;29.49;101595.47;5051715;28;19932;-73
2022/03/12 07:02:25;;;;;;;;;;;;;;;9.26;29.68;101600.03;5051876;28;19913;-71
2022/03/12 07:04:51;;;;;;;;;;;;;;;8.97;29.95;101599.13;5051993;28;19967;-74
2022/03/12 07:07:17;;;;;;;;;;;;;;;9.31;29.89;101597.47;5051868;28;19924;-72
2022/03/12 07:09:42;;;;;;;;;;;;;;;9.24;29.97;101600.28;5051751;28;19921;-71
2022/03/12 07:12:08;;;;;;;;;;;;;;;9.41;29.30;101592.25;5051321;28;20024;-72
2022/03/12 07:14:33;;;;;;;;;;;;;;;9.24;30.13;101588.63;5051416;28;19921;-72
2022/03/12 07:16:59;;;;;;;;;;;;;;;9.59;29.25;101592.13;5051993;28;19920;-72
2022/03/12 07:19:24;;;;;;;;;;;;;;;9.72;29.63;101592.66;5051272;28;20609;-72
2022/03/12 07:21:50;;;;;;;;;;;;;;;9.89;29.05;101595.44;5051469;28;19988;-72
2022/03/12 07:24:16;;;;;;;;;;;;;;;8.96;30.77;101606.41;5032955;28;20002;-72
2022/03/12 07:26:42;;;;;;;;;;;;;;;9.10;30.89;101606.16;5054133;28;20367;-72
2022/03/12 07:29:07;;;;;;;;;;;;;;;9.59;29.72;101601.06;5053937;28;19917;-73
2022/03/12 07:31:32;;;;;;;;;;;;;;;9.34;30.63;101613.22;5050742;28;19921;-72
2022/03/12 07:33:57;;;;;;;;;;;;;;;9.23;31.06;101619.47;5050822;28;19974;-72
2022/03/12 07:36:23;;;;;;;;;;;;;;;9.77;30.12;101616.34;5050884;28;19917;-73
2022/03/12 07:38:48;;;;;;;;;;;;;;;9.86;30.09;101620.34;5049322;28;19928;-72
2022/03/12 07:41:13;;;;;;;;;;;;;;;9.67;30.84;101618.84;5049805;28;20360;-74
2022/03/12 07:43:39;;;;;;;;;;;;;;;9.83;30.43;101626.22;5049200;28;19932;-73
2022/03/12 07:46:05;;;;;;;;;;;;;;;9.72;31.37;101627.88;5051139;28;19921;-73
2022/03/12 07:48:30;;;;;;;;;;;;;;;10.28;30.15;101629.81;5050224;28;19932;-73
2022/03/12 07:50:56;;;;;;;;;;;;;;;10.37;30.33;101622.13;5050547;28;19920;-71
2022/03/12 07:53:21;;;;;;;;;;;;;;;10.27;30.56;101627.34;5050493;28;19913;-73
2022/03/12 07:55:47;;;;;;;;;;;;;;;10.74;29.93;101636.06;5051813;28;20003;-74
2022/03/12 07:58:14;;;;;;;;;;;;;;;11.48;28.94;101633.72;5054420;28;19967;-73
2022/03/12 08:00:39;;;;;;;;;;;;;;;11.50;29.29;101631.56;5054502;28;19920;-72
2022/03/12 08:03:05;;;;;;;;;;;;;;;11.42;29.62;101626.53;5054692;28;19924;-73
2022/03/12 08:05:30;;;;;;;;;;;;;;;11.68;29.44;101626.88;5054594;28;20590;-72
2022/03/12 08:07:56;;;;;;;;;;;;;;;11.70;29.90;101624.72;5055178;28;19958;-73
2022/03/12 08:10:22;;;;;;;;;;;;;;;11.76;30.46;101635.44;5054563;28;19925;-71
2022/03/12 08:12:47;;;;;;;;;;;;;;;11.66;30.51;101640.72;5054369;28;19932;-73
2022/03/12 08:15:12;;;;;;;;;;;;;;;11.48;31.35;101641.00;5052951;28;19928;-73
2022/03/12 08:17:38;;;;;;;;;;;;;;;12.31;30.27;101646.94;5053905;28;20023;-72
2022/03/12 08:20:07;;;;;;;;;;;;;;;10.97;32.63;101652.19;5054047;28;19940;-75
2022/03/12 08:22:33;;;;;;;;;;;;;;;10.87;32.58;101652.03;5053361;28;19921;-74
2022/03/12 08:24:58;;;;;;;;;;;;;;;11.52;31.86;101648.44;5053422;28;19944;-72
2022/03/12 08:27:23;;;;;;;;;;;;;;;11.79;31.41;101659.38;5052915;28;19928;-73
2022/03/12 08:29:49;;;;;;;;;;;;;;;11.30;32.63;101663.84;5051860;28;19982;-72
2022/03/12 08:32:14;;;;;;;;;;;;;;;11.33;32.38;101663.38;5053288;28;19924;-72
2022/03/12 08:34:43;;;;;;;;;;;;;;;11.40;32.55;101668.59;5051197;28;19920;-72
2022/03/12 08:37:09;;;;;;;;;;;;;;;11.47;32.57;101675.50;5053559;28;19924;-73
2022/03/12 08:39:35;;;;;;;;;;;;;;;11.20;32.90;101690.03;5052954;28;19921;-72
2022/03/12 08:42:01;;;;;;;;;;;;;;;11.58;32.28;101686.53;5052622;28;19925;-73
2022/03/12 08:44:26;;;;;;;;;;;;;;;12.03;31.84;101692.59;5052501;28;19920;-74
2022/03/12 08:46:52;;;;;;;;;;;;;;;12.50;30.63;101687.41;5054156;28;19913;-73
2022/03/12 08:49:18;;;;;;;;;;;;;;;12.59;31.02;101681.28;5053863;28;19956;-73
2022/03/12 08:51:44;;;;;;;;;;;;;;;12.44;31.15;101691.19;5053713;28;19921;-72
2022/03/12 08:54:09;;;;;;;;;;;;;;;12.71;30.60;101692.81;5053455;28;19990;-72
2022/03/12 08:56:35;;;;;;;;;;;;;;;11.96;31.35;101689.25;5053589;28;19973;-71
2022/03/12 08:59:00;;;;;;;;;;;;;;;12.49;31.09;101693.97;5053988;28;19921;-73
2022/03/12 09:01:26;;;;;;;;;;;;;;;11.92;31.88;101691.66;5053107;28;19928;-73
2022/03/12 09:03:51;;;;;;;;;;;;;;;11.92;31.83;101702.53;5051531;28;19970;-74
2022/03/12 09:06:17;;;;;;;;;;;;;;;12.52;31.21;101699.69;5053388;28;19944;-73
2022/03/12 09:08:43;;;;;;;;;;;;;;;11.90;32.19;101706.56;5051461;28;19928;-72
2022/03/12 09:11:08;;;;;;;;;;;;;;;11.54;33.10;101697.09;5052781;28;19916;-72
2022/03/12 09:13:35;;;;;;;;;;;;;;;11.85;32.46;101704.59;5051118;28;19925;-71
2022/03/12 09:16:02;;;;;;;;;;;;;;;11.93;32.65;101706.03;5037796;28;19936;-72
2022/03/12 09:18:28;;;;;;;;;;;;;;;12.18;32.62;101709.09;5044440;28;19966;-72
2022/03/12 09:20:54;;;;;;;;;;;;;;;11.98;32.57;101704.25;5043058;28;20364;-72
2022/03/12 09:23:20;;;;;;;;;;;;;;;11.90;33.22;101701.97;5045986;28;19928;-74
2022/03/12 09:25:47;;;;;;;;;;;;;;;12.71;31.78;101708.34;5042058;28;19978;-74
2022/03/12 09:28:13;;;;;;;;;;;;;;;12.79;31.87;101711.41;5047788;28;20392;-72
2022/03/12 09:30:38;;;;;;;;;;;;;;;13.02;31.26;101707.53;5041860;28;19921;-72
2022/03/12 09:33:04;;;;;;;;;;;;;;;11.68;34.16;101708.44;5043383;28;19921;-72
2022/03/12 09:35:30;;;;;;;;;;;;;;;12.79;32.47;101714.13;5044135;28;20400;-72
2022/03/12 09:37:55;;;;;;;;;;;;;;;13.11;32.03;101717.69;5044639;28;19913;-74
2022/03/12 09:40:21;;;;;;;;;;;;;;;13.24;32.21;101719.97;5042498;28;19920;-72
2022/03/12 09:42:46;;;;;;;;;;;;;;;12.87;32.58;101718.31;5042996;28;19923;-72
2022/03/12 09:45:13;;;;;;;;;;;;;;;13.64;31.26;101719.47;5043834;28;20327;-72
2022/03/12 09:47:38;;;;;;;;;;;;;;;13.94;31.07;101711.44;5040208;28;19932;-73
2022/03/12 09:50:04;;;;;;;;;;;;;;;13.38;31.95;101725.81;5042898;28;19982;-73
2022/03/12 09:52:30;;;;;;;;;;;;;;;13.19;32.87;101722.66;5043370;28;20007;-73
2022/03/12 09:54:55;;;;;;;;;;;;;;;13.51;32.45;101719.09;5041894;28;20003;-73
2022/03/12 09:57:21;;;;;;;;;;;;;;;13.23;32.84;101720.22;5043593;28;19979;-72
2022/03/12 09:59:46;;;;;;;;;;;;;;;13.09;33.34;101721.75;5040747;28;19921;-72
2022/03/12 10:02:11;;;;;;;;;;;;;;;13.83;32.47;101717.13;5043925;28;19967;-72
2022/03/12 10:04:37;;;;;;;;;;;;;;;13.01;33.52;101720.31;5041565;28;19932;-74
2022/03/12 10:07:03;;;;;;;;;;;;;;;14.24;31.81;101718.13;5043175;28;20040;-73
2022/03/12 10:09:29;;;;;;;;;;;;;;;13.66;33.68;101721.91;5043020;28;19928;-72
2022/03/12 10:11:54;;;;;;;;;;;;;;;13.76;33.44;101713.78;5041542;28;19925;-73
2022/03/12 10:14:20;;;;;;;;;;;;;;;14.21;32.99;101716.75;5036323;28;19925;-72
2022/03/12 10:16:45;;;;;;;;;;;;;;;14.31;32.87;101715.97;5042626;28;19909;-73
2022/03/12 10:19:10;;;;;;;;;;;;;;;14.29;32.96;101713.50;5041474;28;20003;-74
2022/03/12 10:21:42;;;;;;;;;;;;;;;14.20;33.02;101715.13;5043261;28;19921;-73
2022/03/12 10:24:08;;;;;;;;;;;;;;;14.77;32.18;101710.34;5042246;28;19974;-74
2022/03/12 10:26:33;;;;;;;;;;;;;;;14.53;32.76;101711.94;5040245;28;19925;-73
2022/03/12 10:28:58;;;;;;;;;;;;;;;14.69;32.49;101716.34;5041649;28;19917;-72
2022/03/12 10:31:23;;;;;;;;;;;;;;;15.43;31.24;101713.91;5043487;28;20531;-73
2022/03/12 10:33:49;;;;;;;;;;;;;;;14.85;32.56;101709.00;5041564;28;19924;-74
2022/03/12 10:36:15;;;;;;;;;;;;;;;15.06;32.23;101718.03;5042113;28;19929;-73
2022/03/12 10:38:42;;;;;;;;;;;;;;;14.59;32.90;101720.97;5040650;28;19917;-76
2022/03/12 10:41:08;;;;;;;;;;;;;;;15.34;32.16;101717.47;5042114;28;19917;-75
2022/03/12 10:43:50;;;;;;;;;;;;;;;14.73;32.97;101720.19;5042656;28;19921;-78
2022/03/12 10:46:23;;;;;;;;;;;;;;;15.74;31.44;101725.59;5036128;28;19921;-77
2022/03/12 10:49:08;;;;;;;;;;;;;;;15.32;32.03;101725.97;5039638;28;19944;-77
2022/03/12 10:51:38;;;;;;;;;;;;;;;14.78;32.99;101722.91;5040192;28;20296;-77
2022/03/12 10:54:08;;;;;;;;;;;;;;;15.62;31.88;101728.63;5040250;28;19960;-78
2022/03/12 10:56:43;;;;;;;;;;;;;;;15.21;32.35;101718.84;5041398;28;20008;-77
2022/03/12 10:59:17;;;;;;;;;;;;;;;15.19;32.65;101729.25;5042076;28;20345;-78
2022/03/12 11:01:46;;;;;;;;;;;;;;;15.23;32.19;101727.59;5031418;28;19921;-78
2022/03/12 11:04:17;;;;;;;;;;;;;;;15.22;32.31;101728.72;5037870;28;20352;-77
2022/03/12 11:06:43;;;;;;;;;;;;;;;16.09;31.13;101733.75;5040421;28;19928;-76
2022/03/12 11:09:13;;;;;;;;;;;;;;;15.40;32.33;101733.63;5040263;28;19917;-78
2022/03/12 11:11:39;;;;;;;;;;;;;;;15.18;32.32;101740.44;5042671;28;19932;-77
2022/03/12 11:14:06;;;;;;;;;;;;;;;14.76;32.94;101737.91;5040620;28;20333;-75
2022/03/12 11:16:35;;;;;;;;;;;;;;;15.77;31.84;101749.69;5043798;28;19924;-76
2022/03/12 11:19:07;;;;;;;;;;;;;;;15.65;31.74;101746.44;5039361;28;19928;-78
2022/03/12 11:21:37;;;;;;;;;;;;;;;16.07;31.00;101757.03;5036168;28;19921;-80
2022/03/12 11:24:06;;;;;;;;;;;;;;;15.40;32.32;101750.03;5048820;28;19928;-79
2022/03/12 11:26:43;;;;;;;;;;;;;;;15.24;32.50;101758.50;5048008;28;19917;-79
2022/03/12 11:29:08;;;;;;;;;;;;;;;14.81;33.04;101757.88;5040450;28;20400;-78
2022/03/12 11:31:57;;;;;;;;;;;;;;;15.03;33.03;101752.19;5033752;28;19921;-78
2022/03/12 11:34:23;;;;;;;;;;;;;;;15.35;32.10;101755.50;4992982;28;19965;-76
2022/03/12 11:36:59;;;;;;;;;;;;;;;15.97;31.27;101768.84;5000584;28;19964;-78
2022/03/12 11:39:29;;;;;;;;;;;;;;;15.98;31.23;101764.97;5001311;28;19922;-78
2022/03/12 11:42:03;;;;;;;;;;;;;;;15.86;31.42;101760.94;4988417;28;19926;-77
2022/03/12 11:44:30;;;;;;;;;;;;;;;15.95;31.17;101761.97;4995405;28;20024;-77
2022/03/12 11:46:56;;;;;;;;;;;;;;;16.05;30.80;101767.44;4996625;28;19914;-76
2022/03/12 11:49:22;;;;;;;;;;;;;;;16.51;29.78;101757.91;4980228;28;19970;-78
2022/03/12 11:51:48;;;;;;;;;;;;;;;16.30;30.49;101759.94;4989999;28;20028;-77
2022/03/12 11:54:13;;;;;;;;;;;;;;;16.21;30.71;101767.09;4996506;28;20005;-77
2022/03/12 11:56:38;;;;;;;;;;;;;;;15.98;30.92;101766.88;4996668;28;19973;-75
2022/03/12 11:59:04;;;;;;;;;;;;;;;15.72;31.47;101758.72;5005948;28;19991;-76
2022/03/12 12:01:30;;;;;;;;;;;;;;;16.81;29.84;101765.16;4978232;28;19929;-75
2022/03/12 12:03:56;;;;;;;;;;;;;;;16.37;30.93;101752.22;4988133;28;19976;-77
2022/03/12 12:06:21;;;;;;;;;;;;;;;16.25;30.82;101754.47;4989106;28;20563;-77
2022/03/12 12:08:46;;;;;;;;;;;;;;;16.70;30.14;101751.53;4988953;28;20112;-77
2022/03/12 12:11:12;;;;;;;;;;;;;;;17.08;29.32;101751.81;4997001;28;20292;-76
2022/03/12 12:13:37;;;;;;;;;;;;;;;16.63;30.04;101752.94;5035904;28;19929;-78
2022/03/12 12:16:05;;;;;;;;;;;;;;;16.78;29.88;101743.81;5027249;28;19925;-78
2022/03/12 12:18:31;;;;;;;;;;;;;;;16.53;30.50;101750.22;5027492;28;19975;-79
2022/03/12 12:20:56;;;;;;;;;;;;;;;17.85;28.37;101745.34;5027335;28;20397;-78
2022/03/12 12:23:21;;;;;;;;;;;;;;;17.71;28.39;101749.88;5026478;28;19956;-79
2022/03/12 12:25:47;;;;;;;;;;;;;;;16.91;30.09;101741.25;5028983;28;19921;-78
2022/03/12 12:28:17;;;;;;;;;;;;;;;16.95;29.62;101733.28;5020331;28;19932;-78
2022/03/12 12:30:44;;;;;;;;;;;;;;;17.69;28.45;101744.69;5025757;28;20423;-76
2022/03/12 12:33:22;;;;;;;;;;;;;;;16.97;29.22;101739.28;5025446;28;19925;-78
2022/03/12 12:35:52;;;;;;;;;;;;;;;17.00;29.24;101742.28;5028247;28;19993;-78